sensor_id;sensor_type;location;lat;lon;timestamp;temperature;humidity
15426;DHT22;7812;50.072;7.036;2023-02-26T00:00:13;-1.60;99.90
15426;DHT22;7812;50.072;7.036;2023-02-26T00:02:43;-1.50;99.90
15426;DHT22;7812;50.072;7.036;2023-02-26T00:05:14;-1.40;99.90
15426;DHT22;7812;50.072;7.036;2023-02-26T00:07:41;-1.60;99.90
15426;DHT22;7812;50.072;7.036;2023-02-26T00:10:08;-1.70;99.90
15426;DHT22;7812;50.072;7.036;2023-02-26T00:12:34;-1.70;99.90
15426;DHT22;7812;50.072;7.036;2023-02-26T00:15:00;-1.60;99.90
15426;DHT22;7812;50.072;7.036;2023-02-26T00:17:50;-1.50;99.90
15426;DHT22;7812;50.072;7.036;2023-02-26T00:20:18;-1.50;99.90
15426;DHT22;7812;50.072;7.036;2023-02-26T00:22:44;-1.50;99.90
15426;DHT22;7812;50.072;7.036;2023-02-26T00:25:10;-1.40;99.90
15426;DHT22;7812;50.072;7.036;2023-02-26T00:27:36;-1.30;99.90
15426;DHT22;7812;50.072;7.036;2023-02-26T00:30:04;-1.30;99.90
15426;DHT22;7812;50.072;7.036;2023-02-26T00:32:30;-1.40;99.90
15426;DHT22;7812;50.072;7.036;2023-02-26T00:34:56;-1.50;99.90
15426;DHT22;7812;50.072;7.036;2023-02-26T00:43:04;-0.90;99.90
15426;DHT22;7812;50.072;7.036;2023-02-26T00:45:31;-0.90;99.90
15426;DHT22;7812;50.072;7.036;2023-02-26T00:53:55;-1.10;99.90
15426;DHT22;7812;50.072;7.036;2023-02-26T00:56:22;-1.10;99.90
15426;DHT22;7812;50.072;7.036;2023-02-26T00:58:48;-1.00;99.90
15426;DHT22;7812;50.072;7.036;2023-02-26T01:01:14;-0.80;99.90
15426;DHT22;7812;50.072;7.036;2023-02-26T01:03:40;-0.70;99.90
15426;DHT22;7812;50.072;7.036;2023-02-26T01:06:10;-0.70;99.90
15426;DHT22;7812;50.072;7.036;2023-02-26T01:08:44;-0.50;99.90
15426;DHT22;7812;50.072;7.036;2023-02-26T01:11:11;-0.60;99.90
15426;DHT22;7812;50.072;7.036;2023-02-26T01:13:37;-0.60;99.90
15426;DHT22;7812;50.072;7.036;2023-02-26T01:16:07;-0.70;99.90
15426;DHT22;7812;50.072;7.036;2023-02-26T01:18:54;-1.00;99.90
15426;DHT22;7812;50.072;7.036;2023-02-26T01:21:30;-1.10;99.90
15426;DHT22;7812;50.072;7.036;2023-02-26T01:23:58;-1.30;99.90
15426;DHT22;7812;50.072;7.036;2023-02-26T01:26:27;-1.30;99.90
15426;DHT22;7812;50.072;7.036;2023-02-26T01:28:54;-1.30;99.90
15426;DHT22;7812;50.072;7.036;2023-02-26T01:31:38;-1.50;99.90
15426;DHT22;7812;50.072;7.036;2023-02-26T01:42:39;-1.60;99.90
15426;DHT22;7812;50.072;7.036;2023-02-26T01:45:45;-1.60;99.90
15426;DHT22;7812;50.072;7.036;2023-02-26T01:48:10;-1.60;99.90
15426;DHT22;7812;50.072;7.036;2023-02-26T01:50:43;-1.50;99.90
15426;DHT22;7812;50.072;7.036;2023-02-26T01:55:45;-1.60;99.90
15426;DHT22;7812;50.072;7.036;2023-02-26T01:58:13;-1.80;99.90
15426;DHT22;7812;50.072;7.036;2023-02-26T02:00:39;-1.90;99.90
15426;DHT22;7812;50.072;7.036;2023-02-26T02:03:19;-1.90;99.90
15426;DHT22;7812;50.072;7.036;2023-02-26T02:06:04;-1.80;99.90
15426;DHT22;7812;50.072;7.036;2023-02-26T02:08:32;-1.80;99.90
15426;DHT22;7812;50.072;7.036;2023-02-26T02:11:01;-1.80;99.90
15426;DHT22;7812;50.072;7.036;2023-02-26T02:31:48;-1.40;99.90
15426;DHT22;7812;50.072;7.036;2023-02-26T02:34:50;-1.70;99.90
15426;DHT22;7812;50.072;7.036;2023-02-26T02:37:18;-1.60;99.90
15426;DHT22;7812;50.072;7.036;2023-02-26T02:42:28;-1.10;99.90
15426;DHT22;7812;50.072;7.036;2023-02-26T02:45:04;-1.00;99.90
15426;DHT22;7812;50.072;7.036;2023-02-26T02:47:34;-0.90;99.90
15426;DHT22;7812;50.072;7.036;2023-02-26T02:50:13;-0.90;99.90
15426;DHT22;7812;50.072;7.036;2023-02-26T02:52:57;-1.00;99.90
15426;DHT22;7812;50.072;7.036;2023-02-26T02:55:35;-1.10;99.90
15426;DHT22;7812;50.072;7.036;2023-02-26T02:58:10;-1.10;99.90
15426;DHT22;7812;50.072;7.036;2023-02-26T03:00:41;-1.10;99.90
15426;DHT22;7812;50.072;7.036;2023-02-26T03:03:27;-1.10;99.90
15426;DHT22;7812;50.072;7.036;2023-02-26T03:05:54;-1.20;99.90
15426;DHT22;7812;50.072;7.036;2023-02-26T03:08:22;-1.20;99.90
15426;DHT22;7812;50.072;7.036;2023-02-26T03:10:49;-1.20;99.90
15426;DHT22;7812;50.072;7.036;2023-02-26T03:30:35;-1.60;99.90
15426;DHT22;7812;50.072;7.036;2023-02-26T03:41:48;-1.50;99.90
15426;DHT22;7812;50.072;7.036;2023-02-26T03:46:49;-1.60;99.90
15426;DHT22;7812;50.072;7.036;2023-02-26T03:49:22;-1.60;99.90
15426;DHT22;7812;50.072;7.036;2023-02-26T03:51:49;-1.70;99.90
15426;DHT22;7812;50.072;7.036;2023-02-26T03:54:40;-1.70;99.90
15426;DHT22;7812;50.072;7.036;2023-02-26T03:57:07;-1.60;99.90
15426;DHT22;7812;50.072;7.036;2023-02-26T03:59:33;-1.60;99.90
15426;DHT22;7812;50.072;7.036;2023-02-26T04:04:35;-1.40;99.90
15426;DHT22;7812;50.072;7.036;2023-02-26T04:10:18;-1.60;99.90
15426;DHT22;7812;50.072;7.036;2023-02-26T04:12:46;-1.50;99.90
15426;DHT22;7812;50.072;7.036;2023-02-26T04:15:12;-1.50;99.90
15426;DHT22;7812;50.072;7.036;2023-02-26T04:17:38;-1.50;99.90
15426;DHT22;7812;50.072;7.036;2023-02-26T04:20:04;-1.50;99.90
15426;DHT22;7812;50.072;7.036;2023-02-26T04:22:34;-1.40;99.90
15426;DHT22;7812;50.072;7.036;2023-02-26T04:25:00;-1.50;99.90
15426;DHT22;7812;50.072;7.036;2023-02-26T04:27:25;-1.40;99.90
15426;DHT22;7812;50.072;7.036;2023-02-26T04:29:51;-1.50;99.90
15426;DHT22;7812;50.072;7.036;2023-02-26T04:32:17;-1.60;99.90
15426;DHT22;7812;50.072;7.036;2023-02-26T04:34:42;-1.70;99.90
15426;DHT22;7812;50.072;7.036;2023-02-26T04:37:08;-1.90;99.90
15426;DHT22;7812;50.072;7.036;2023-02-26T04:39:34;-1.80;99.90
15426;DHT22;7812;50.072;7.036;2023-02-26T04:41:59;-1.70;99.90
15426;DHT22;7812;50.072;7.036;2023-02-26T04:44:25;-1.60;99.90
15426;DHT22;7812;50.072;7.036;2023-02-26T04:46:50;-1.70;99.90
15426;DHT22;7812;50.072;7.036;2023-02-26T04:49:16;-1.80;99.90
15426;DHT22;7812;50.072;7.036;2023-02-26T04:51:42;-1.90;99.90
15426;DHT22;7812;50.072;7.036;2023-02-26T04:54:08;-2.00;99.90
15426;DHT22;7812;50.072;7.036;2023-02-26T04:56:33;-1.90;99.90
15426;DHT22;7812;50.072;7.036;2023-02-26T04:58:59;-2.00;99.90
15426;DHT22;7812;50.072;7.036;2023-02-26T05:01:25;-2.00;99.90
15426;DHT22;7812;50.072;7.036;2023-02-26T05:03:50;-2.00;99.90
15426;DHT22;7812;50.072;7.036;2023-02-26T05:06:16;-2.10;99.90
15426;DHT22;7812;50.072;7.036;2023-02-26T05:08:42;-2.10;99.90
15426;DHT22;7812;50.072;7.036;2023-02-26T05:11:11;-2.10;99.90
15426;DHT22;7812;50.072;7.036;2023-02-26T05:13:37;-2.20;99.90
15426;DHT22;7812;50.072;7.036;2023-02-26T05:16:04;-2.20;99.90
15426;DHT22;7812;50.072;7.036;2023-02-26T05:18:30;-2.10;99.90
15426;DHT22;7812;50.072;7.036;2023-02-26T05:20:58;-2.10;99.90
15426;DHT22;7812;50.072;7.036;2023-02-26T05:23:23;-2.10;99.90
15426;DHT22;7812;50.072;7.036;2023-02-26T05:25:49;-2.00;99.90
15426;DHT22;7812;50.072;7.036;2023-02-26T05:28:15;-2.00;99.90
15426;DHT22;7812;50.072;7.036;2023-02-26T05:30:41;-1.90;99.90
15426;DHT22;7812;50.072;7.036;2023-02-26T05:33:07;-1.80;99.90
15426;DHT22;7812;50.072;7.036;2023-02-26T05:35:33;-1.70;99.90
15426;DHT22;7812;50.072;7.036;2023-02-26T05:37:59;-1.80;99.90
15426;DHT22;7812;50.072;7.036;2023-02-26T05:40:25;-1.70;99.90
15426;DHT22;7812;50.072;7.036;2023-02-26T05:42:50;-1.70;99.90
15426;DHT22;7812;50.072;7.036;2023-02-26T05:45:17;-1.80;99.90
15426;DHT22;7812;50.072;7.036;2023-02-26T05:47:44;-1.90;99.90
15426;DHT22;7812;50.072;7.036;2023-02-26T05:50:10;-1.90;99.90
15426;DHT22;7812;50.072;7.036;2023-02-26T05:52:36;-1.80;99.90
15426;DHT22;7812;50.072;7.036;2023-02-26T05:55:03;-1.90;99.90
15426;DHT22;7812;50.072;7.036;2023-02-26T05:57:29;-2.10;99.90
15426;DHT22;7812;50.072;7.036;2023-02-26T05:59:54;-2.10;99.90
15426;DHT22;7812;50.072;7.036;2023-02-26T06:02:20;-2.10;99.90
15426;DHT22;7812;50.072;7.036;2023-02-26T06:04:46;-2.00;99.90
15426;DHT22;7812;50.072;7.036;2023-02-26T06:07:12;-1.90;99.90
15426;DHT22;7812;50.072;7.036;2023-02-26T06:09:37;-1.80;99.90
15426;DHT22;7812;50.072;7.036;2023-02-26T06:12:03;-1.70;99.90
15426;DHT22;7812;50.072;7.036;2023-02-26T06:14:29;-1.70;99.90
15426;DHT22;7812;50.072;7.036;2023-02-26T06:16:55;-1.60;99.90
15426;DHT22;7812;50.072;7.036;2023-02-26T06:19:20;-1.50;99.90
15426;DHT22;7812;50.072;7.036;2023-02-26T06:21:46;-1.40;99.90
15426;DHT22;7812;50.072;7.036;2023-02-26T06:24:12;-1.50;99.90
15426;DHT22;7812;50.072;7.036;2023-02-26T06:26:38;-1.60;99.90
15426;DHT22;7812;50.072;7.036;2023-02-26T06:29:03;-1.60;99.90
15426;DHT22;7812;50.072;7.036;2023-02-26T06:31:29;-1.80;99.90
15426;DHT22;7812;50.072;7.036;2023-02-26T06:33:55;-2.10;99.90
15426;DHT22;7812;50.072;7.036;2023-02-26T06:36:21;-2.20;99.90
15426;DHT22;7812;50.072;7.036;2023-02-26T06:38:47;-2.30;99.90
15426;DHT22;7812;50.072;7.036;2023-02-26T06:41:12;-2.30;99.90
15426;DHT22;7812;50.072;7.036;2023-02-26T06:43:38;-2.20;99.90
15426;DHT22;7812;50.072;7.036;2023-02-26T06:46:04;-2.10;99.90
15426;DHT22;7812;50.072;7.036;2023-02-26T06:48:30;-2.00;99.90
15426;DHT22;7812;50.072;7.036;2023-02-26T06:50:56;-1.80;99.90
15426;DHT22;7812;50.072;7.036;2023-02-26T06:53:22;-1.80;99.90
15426;DHT22;7812;50.072;7.036;2023-02-26T06:55:51;-2.00;99.90
15426;DHT22;7812;50.072;7.036;2023-02-26T06:58:18;-2.10;99.90
15426;DHT22;7812;50.072;7.036;2023-02-26T07:00:44;-1.90;99.90
15426;DHT22;7812;50.072;7.036;2023-02-26T07:03:14;-1.10;99.90
15426;DHT22;7812;50.072;7.036;2023-02-26T07:05:40;-0.40;99.90
15426;DHT22;7812;50.072;7.036;2023-02-26T07:08:06;0.40;99.90
15426;DHT22;7812;50.072;7.036;2023-02-26T07:10:35;0.90;99.90
15426;DHT22;7812;50.072;7.036;2023-02-26T07:13:02;1.60;99.90
15426;DHT22;7812;50.072;7.036;2023-02-26T07:15:28;2.90;99.90
15426;DHT22;7812;50.072;7.036;2023-02-26T07:17:54;2.80;99.90
15426;DHT22;7812;50.072;7.036;2023-02-26T07:20:20;3.00;99.90
15426;DHT22;7812;50.072;7.036;2023-02-26T07:22:47;3.90;99.90
15426;DHT22;7812;50.072;7.036;2023-02-26T07:25:13;4.30;99.90
15426;DHT22;7812;50.072;7.036;2023-02-26T07:27:39;4.70;99.90
15426;DHT22;7812;50.072;7.036;2023-02-26T07:30:06;5.20;99.90
15426;DHT22;7812;50.072;7.036;2023-02-26T07:32:32;5.60;99.90
15426;DHT22;7812;50.072;7.036;2023-02-26T07:34:58;6.60;99.90
15426;DHT22;7812;50.072;7.036;2023-02-26T07:37:24;7.10;99.90
15426;DHT22;7812;50.072;7.036;2023-02-26T07:39:50;7.90;99.90
15426;DHT22;7812;50.072;7.036;2023-02-26T07:42:16;8.10;99.90
15426;DHT22;7812;50.072;7.036;2023-02-26T07:44:42;7.00;99.90
15426;DHT22;7812;50.072;7.036;2023-02-26T07:47:09;6.40;99.90
15426;DHT22;7812;50.072;7.036;2023-02-26T07:49:35;6.70;99.90
15426;DHT22;7812;50.072;7.036;2023-02-26T07:52:02;6.60;99.90
15426;DHT22;7812;50.072;7.036;2023-02-26T07:54:27;7.50;99.90
15426;DHT22;7812;50.072;7.036;2023-02-26T07:56:53;8.50;99.90
15426;DHT22;7812;50.072;7.036;2023-02-26T07:59:19;7.50;99.90
15426;DHT22;7812;50.072;7.036;2023-02-26T08:01:45;7.00;99.90
15426;DHT22;7812;50.072;7.036;2023-02-26T08:04:10;6.60;99.90
15426;DHT22;7812;50.072;7.036;2023-02-26T08:06:36;5.00;99.90
15426;DHT22;7812;50.072;7.036;2023-02-26T08:09:02;5.20;99.90
15426;DHT22;7812;50.072;7.036;2023-02-26T08:11:28;5.20;99.90
15426;DHT22;7812;50.072;7.036;2023-02-26T08:13:54;6.00;99.90
15426;DHT22;7812;50.072;7.036;2023-02-26T08:16:20;6.70;99.90
15426;DHT22;7812;50.072;7.036;2023-02-26T08:18:45;6.70;99.90
15426;DHT22;7812;50.072;7.036;2023-02-26T08:21:11;5.70;99.90
15426;DHT22;7812;50.072;7.036;2023-02-26T08:23:37;5.00;99.90
15426;DHT22;7812;50.072;7.036;2023-02-26T08:26:05;5.80;99.90
15426;DHT22;7812;50.072;7.036;2023-02-26T08:28:31;4.70;99.90
15426;DHT22;7812;50.072;7.036;2023-02-26T08:30:58;4.80;99.90
15426;DHT22;7812;50.072;7.036;2023-02-26T08:33:24;5.30;99.90
15426;DHT22;7812;50.072;7.036;2023-02-26T08:35:50;6.20;99.90
15426;DHT22;7812;50.072;7.036;2023-02-26T08:38:16;4.30;99.90
15426;DHT22;7812;50.072;7.036;2023-02-26T08:40:42;4.50;99.90
15426;DHT22;7812;50.072;7.036;2023-02-26T08:43:08;5.00;99.90
15426;DHT22;7812;50.072;7.036;2023-02-26T08:45:36;6.00;99.90
15426;DHT22;7812;50.072;7.036;2023-02-26T08:48:02;5.50;99.90
15426;DHT22;7812;50.072;7.036;2023-02-26T08:50:28;5.20;99.90
15426;DHT22;7812;50.072;7.036;2023-02-26T08:52:53;5.70;99.90
15426;DHT22;7812;50.072;7.036;2023-02-26T08:55:19;4.80;99.90
15426;DHT22;7812;50.072;7.036;2023-02-26T08:57:45;5.60;99.90
15426;DHT22;7812;50.072;7.036;2023-02-26T09:00:11;6.10;99.90
15426;DHT22;7812;50.072;7.036;2023-02-26T09:02:37;6.90;99.90
15426;DHT22;7812;50.072;7.036;2023-02-26T09:05:04;6.80;99.90
15426;DHT22;7812;50.072;7.036;2023-02-26T09:07:30;6.50;99.90
15426;DHT22;7812;50.072;7.036;2023-02-26T09:09:57;6.90;99.90
15426;DHT22;7812;50.072;7.036;2023-02-26T09:12:23;5.30;99.90
15426;DHT22;7812;50.072;7.036;2023-02-26T09:14:49;4.80;99.90
15426;DHT22;7812;50.072;7.036;2023-02-26T09:17:14;5.20;99.90
15426;DHT22;7812;50.072;7.036;2023-02-26T09:19:40;6.20;99.90
15426;DHT22;7812;50.072;7.036;2023-02-26T09:22:06;5.30;99.90
15426;DHT22;7812;50.072;7.036;2023-02-26T09:24:31;6.10;99.90
15426;DHT22;7812;50.072;7.036;2023-02-26T09:26:57;6.50;99.90
15426;DHT22;7812;50.072;7.036;2023-02-26T09:29:23;6.90;99.90
15426;DHT22;7812;50.072;7.036;2023-02-26T09:31:48;7.50;99.90
15426;DHT22;7812;50.072;7.036;2023-02-26T09:34:14;8.00;99.90
15426;DHT22;7812;50.072;7.036;2023-02-26T09:36:40;6.70;99.90
15426;DHT22;7812;50.072;7.036;2023-02-26T09:39:06;5.40;99.90
15426;DHT22;7812;50.072;7.036;2023-02-26T09:41:40;5.00;99.90
15426;DHT22;7812;50.072;7.036;2023-02-26T09:52:01;2.30;99.90
15426;DHT22;7812;50.072;7.036;2023-02-26T09:54:31;2.20;99.90
15426;DHT22;7812;50.072;7.036;2023-02-26T09:57:01;2.00;99.90
15426;DHT22;7812;50.072;7.036;2023-02-26T09:59:32;1.90;99.90
15426;DHT22;7812;50.072;7.036;2023-02-26T10:02:06;1.70;99.90
15426;DHT22;7812;50.072;7.036;2023-02-26T10:05:16;1.70;99.90
15426;DHT22;7812;50.072;7.036;2023-02-26T10:07:52;1.70;99.90
15426;DHT22;7812;50.072;7.036;2023-02-26T10:12:56;1.60;99.90
15426;DHT22;7812;50.072;7.036;2023-02-26T10:15:28;1.70;99.90
15426;DHT22;7812;50.072;7.036;2023-02-26T10:20:38;2.10;99.90
15426;DHT22;7812;50.072;7.036;2023-02-26T10:25:41;1.80;99.90
15426;DHT22;7812;50.072;7.036;2023-02-26T10:31:08;1.80;99.90
15426;DHT22;7812;50.072;7.036;2023-02-26T10:38:48;2.00;99.90
15426;DHT22;7812;50.072;7.036;2023-02-26T10:41:19;2.00;99.90
15426;DHT22;7812;50.072;7.036;2023-02-26T10:43:55;2.20;99.90
15426;DHT22;7812;50.072;7.036;2023-02-26T10:46:45;2.30;99.90
15426;DHT22;7812;50.072;7.036;2023-02-26T10:52:15;1.80;99.90
15426;DHT22;7812;50.072;7.036;2023-02-26T10:57:34;2.00;99.90
15426;DHT22;7812;50.072;7.036;2023-02-26T11:00:04;2.00;99.90
15426;DHT22;7812;50.072;7.036;2023-02-26T11:02:39;2.00;99.90
15426;DHT22;7812;50.072;7.036;2023-02-26T11:05:19;2.40;99.90
15426;DHT22;7812;50.072;7.036;2023-02-26T11:08:04;2.80;99.90
15426;DHT22;7812;50.072;7.036;2023-02-26T11:13:26;3.90;99.90
15426;DHT22;7812;50.072;7.036;2023-02-26T11:15:56;6.20;99.90
15426;DHT22;7812;50.072;7.036;2023-02-26T11:18:31;5.90;99.90
15426;DHT22;7812;50.072;7.036;2023-02-26T11:21:03;5.00;99.90
15426;DHT22;7812;50.072;7.036;2023-02-26T11:23:30;3.90;99.90
15426;DHT22;7812;50.072;7.036;2023-02-26T11:26:06;3.70;99.90
15426;DHT22;7812;50.072;7.036;2023-02-26T11:31:38;3.40;99.90
15426;DHT22;7812;50.072;7.036;2023-02-26T11:34:08;3.30;99.90
15426;DHT22;7812;50.072;7.036;2023-02-26T11:36:39;3.60;99.90
15426;DHT22;7812;50.072;7.036;2023-02-26T11:39:26;3.60;99.90
15426;DHT22;7812;50.072;7.036;2023-02-26T11:41:58;3.40;99.90
15426;DHT22;7812;50.072;7.036;2023-02-26T11:44:37;3.20;99.90
15426;DHT22;7812;50.072;7.036;2023-02-26T11:47:14;2.90;99.90
15426;DHT22;7812;50.072;7.036;2023-02-26T11:49:44;3.10;99.90
15426;DHT22;7812;50.072;7.036;2023-02-26T11:54:43;3.20;99.90
15426;DHT22;7812;50.072;7.036;2023-02-26T11:57:25;3.00;99.90
15426;DHT22;7812;50.072;7.036;2023-02-26T11:59:53;3.10;99.90
15426;DHT22;7812;50.072;7.036;2023-02-26T12:02:24;3.10;99.90
15426;DHT22;7812;50.072;7.036;2023-02-26T12:04:54;3.20;99.90
15426;DHT22;7812;50.072;7.036;2023-02-26T12:07:21;3.60;99.90
15426;DHT22;7812;50.072;7.036;2023-02-26T12:09:48;3.90;99.90
15426;DHT22;7812;50.072;7.036;2023-02-26T12:25:38;4.90;99.90
15426;DHT22;7812;50.072;7.036;2023-02-26T12:36:24;3.50;99.90
15426;DHT22;7812;50.072;7.036;2023-02-26T12:39:31;3.40;99.90
15426;DHT22;7812;50.072;7.036;2023-02-26T12:53:47;3.90;99.90
15426;DHT22;7812;50.072;7.036;2023-02-26T13:05:46;4.40;99.90
15426;DHT22;7812;50.072;7.036;2023-02-26T13:08:17;4.00;99.90
15426;DHT22;7812;50.072;7.036;2023-02-26T13:21:18;3.00;99.90
15426;DHT22;7812;50.072;7.036;2023-02-26T13:23:53;2.80;99.90
15426;DHT22;7812;50.072;7.036;2023-02-26T13:26:21;2.70;99.90
15426;DHT22;7812;50.072;7.036;2023-02-26T13:28:55;2.80;99.90
15426;DHT22;7812;50.072;7.036;2023-02-26T13:31:32;2.90;99.90
15426;DHT22;7812;50.072;7.036;2023-02-26T13:34:08;3.10;99.90
15426;DHT22;7812;50.072;7.036;2023-02-26T13:36:35;3.20;99.90
15426;DHT22;7812;50.072;7.036;2023-02-26T13:47:49;2.90;99.90
15426;DHT22;7812;50.072;7.036;2023-02-26T13:55:43;2.80;99.90
15426;DHT22;7812;50.072;7.036;2023-02-26T14:00:47;2.90;99.90
15426;DHT22;7812;50.072;7.036;2023-02-26T14:06:06;3.10;99.90
15426;DHT22;7812;50.072;7.036;2023-02-26T14:11:27;3.50;99.90
15426;DHT22;7812;50.072;7.036;2023-02-26T14:14:35;3.70;99.90
15426;DHT22;7812;50.072;7.036;2023-02-26T14:25:20;3.20;99.90
15426;DHT22;7812;50.072;7.036;2023-02-26T14:28:31;3.60;99.90
15426;DHT22;7812;50.072;7.036;2023-02-26T14:31:08;3.80;99.90
15426;DHT22;7812;50.072;7.036;2023-02-26T14:33:47;3.50;99.90
15426;DHT22;7812;50.072;7.036;2023-02-26T14:39:01;3.20;99.90
15426;DHT22;7812;50.072;7.036;2023-02-26T14:41:37;3.10;99.90
15426;DHT22;7812;50.072;7.036;2023-02-26T14:46:38;3.00;99.90
15426;DHT22;7812;50.072;7.036;2023-02-26T14:49:05;3.00;99.90
15426;DHT22;7812;50.072;7.036;2023-02-26T14:57:32;2.80;99.90
15426;DHT22;7812;50.072;7.036;2023-02-26T15:10:47;2.80;99.90
15426;DHT22;7812;50.072;7.036;2023-02-26T15:23:53;2.50;99.90
15426;DHT22;7812;50.072;7.036;2023-02-26T15:26:28;2.40;99.90
15426;DHT22;7812;50.072;7.036;2023-02-26T15:28:55;2.10;99.90
15426;DHT22;7812;50.072;7.036;2023-02-26T15:31:32;2.10;99.90
15426;DHT22;7812;50.072;7.036;2023-02-26T15:34:00;2.10;99.90
15426;DHT22;7812;50.072;7.036;2023-02-26T15:36:28;2.10;99.90
15426;DHT22;7812;50.072;7.036;2023-02-26T15:38:57;2.10;99.90
15426;DHT22;7812;50.072;7.036;2023-02-26T15:41:25;2.20;99.90
15426;DHT22;7812;50.072;7.036;2023-02-26T15:43:56;2.30;99.90
15426;DHT22;7812;50.072;7.036;2023-02-26T15:46:27;2.40;99.90
15426;DHT22;7812;50.072;7.036;2023-02-26T15:48:57;2.60;99.90
15426;DHT22;7812;50.072;7.036;2023-02-26T15:51:24;2.80;99.90
15426;DHT22;7812;50.072;7.036;2023-02-26T15:53:52;2.90;99.90
15426;DHT22;7812;50.072;7.036;2023-02-26T15:56:25;3.00;99.90
15426;DHT22;7812;50.072;7.036;2023-02-26T15:59:00;3.20;99.90
15426;DHT22;7812;50.072;7.036;2023-02-26T16:01:28;3.00;99.90
15426;DHT22;7812;50.072;7.036;2023-02-26T16:04:01;2.70;99.90
15426;DHT22;7812;50.072;7.036;2023-02-26T16:08:53;2.50;99.90
15426;DHT22;7812;50.072;7.036;2023-02-26T16:11:19;2.40;99.90
15426;DHT22;7812;50.072;7.036;2023-02-26T16:13:49;2.50;99.90
15426;DHT22;7812;50.072;7.036;2023-02-26T16:16:25;2.40;99.90
15426;DHT22;7812;50.072;7.036;2023-02-26T16:18:53;2.40;99.90
15426;DHT22;7812;50.072;7.036;2023-02-26T16:21:37;2.30;99.90
15426;DHT22;7812;50.072;7.036;2023-02-26T16:24:06;2.30;99.90
15426;DHT22;7812;50.072;7.036;2023-02-26T16:26:43;2.40;99.90
15426;DHT22;7812;50.072;7.036;2023-02-26T16:29:47;2.30;99.90
15426;DHT22;7812;50.072;7.036;2023-02-26T16:32:15;2.30;99.90
15426;DHT22;7812;50.072;7.036;2023-02-26T16:34:49;2.20;99.90
15426;DHT22;7812;50.072;7.036;2023-02-26T16:40:23;2.20;99.90
15426;DHT22;7812;50.072;7.036;2023-02-26T16:47:49;2.00;99.90
15426;DHT22;7812;50.072;7.036;2023-02-26T16:50:35;2.10;99.90
15426;DHT22;7812;50.072;7.036;2023-02-26T16:55:31;2.10;99.90
15426;DHT22;7812;50.072;7.036;2023-02-26T16:57:59;2.20;99.90
15426;DHT22;7812;50.072;7.036;2023-02-26T17:00:28;2.30;99.90
15426;DHT22;7812;50.072;7.036;2023-02-26T17:02:56;2.10;99.90
15426;DHT22;7812;50.072;7.036;2023-02-26T17:05:26;2.20;99.90
15426;DHT22;7812;50.072;7.036;2023-02-26T17:08:00;2.10;99.90
15426;DHT22;7812;50.072;7.036;2023-02-26T17:10:32;2.10;99.90
15426;DHT22;7812;50.072;7.036;2023-02-26T17:13:37;2.10;99.90
15426;DHT22;7812;50.072;7.036;2023-02-26T17:16:05;2.10;99.90
15426;DHT22;7812;50.072;7.036;2023-02-26T17:18:34;2.10;99.90
15426;DHT22;7812;50.072;7.036;2023-02-26T17:21:00;2.10;99.90
15426;DHT22;7812;50.072;7.036;2023-02-26T17:23:36;2.10;99.90
15426;DHT22;7812;50.072;7.036;2023-02-26T17:26:02;2.10;99.90
15426;DHT22;7812;50.072;7.036;2023-02-26T17:28:34;2.20;99.90
15426;DHT22;7812;50.072;7.036;2023-02-26T17:31:01;2.20;99.90
15426;DHT22;7812;50.072;7.036;2023-02-26T17:33:27;2.10;99.90
15426;DHT22;7812;50.072;7.036;2023-02-26T17:35:59;2.00;99.90
15426;DHT22;7812;50.072;7.036;2023-02-26T17:38:25;2.10;99.90
15426;DHT22;7812;50.072;7.036;2023-02-26T17:40:52;2.00;99.90
15426;DHT22;7812;50.072;7.036;2023-02-26T17:43:19;1.80;99.90
15426;DHT22;7812;50.072;7.036;2023-02-26T17:45:44;1.90;99.90
15426;DHT22;7812;50.072;7.036;2023-02-26T17:48:12;2.00;99.90
15426;DHT22;7812;50.072;7.036;2023-02-26T17:53:16;2.00;99.90
15426;DHT22;7812;50.072;7.036;2023-02-26T17:55:42;2.00;99.90
15426;DHT22;7812;50.072;7.036;2023-02-26T17:58:34;2.10;99.90
15426;DHT22;7812;50.072;7.036;2023-02-26T18:01:01;2.10;99.90
15426;DHT22;7812;50.072;7.036;2023-02-26T18:03:28;2.10;99.90
15426;DHT22;7812;50.072;7.036;2023-02-26T18:05:55;2.10;99.90
15426;DHT22;7812;50.072;7.036;2023-02-26T18:10:52;2.00;99.90
15426;DHT22;7812;50.072;7.036;2023-02-26T18:13:18;1.90;99.90
15426;DHT22;7812;50.072;7.036;2023-02-26T18:15:44;1.90;99.90
15426;DHT22;7812;50.072;7.036;2023-02-26T18:18:13;1.90;99.90
15426;DHT22;7812;50.072;7.036;2023-02-26T18:20:40;1.80;99.90
15426;DHT22;7812;50.072;7.036;2023-02-26T18:23:06;1.90;99.90
15426;DHT22;7812;50.072;7.036;2023-02-26T18:25:33;1.90;99.90
15426;DHT22;7812;50.072;7.036;2023-02-26T18:28:02;2.00;99.90
15426;DHT22;7812;50.072;7.036;2023-02-26T18:30:33;1.90;99.90
15426;DHT22;7812;50.072;7.036;2023-02-26T18:33:00;1.80;99.90
15426;DHT22;7812;50.072;7.036;2023-02-26T18:35:28;1.70;99.90
15426;DHT22;7812;50.072;7.036;2023-02-26T18:37:55;1.60;99.90
15426;DHT22;7812;50.072;7.036;2023-02-26T18:40:24;1.50;99.90
15426;DHT22;7812;50.072;7.036;2023-02-26T18:42:51;1.50;99.90
15426;DHT22;7812;50.072;7.036;2023-02-26T18:45:17;1.30;99.90
15426;DHT22;7812;50.072;7.036;2023-02-26T18:47:44;1.30;99.90
15426;DHT22;7812;50.072;7.036;2023-02-26T18:50:15;1.40;99.90
15426;DHT22;7812;50.072;7.036;2023-02-26T18:52:41;1.30;99.90
15426;DHT22;7812;50.072;7.036;2023-02-26T18:55:11;1.20;99.90
15426;DHT22;7812;50.072;7.036;2023-02-26T18:57:37;1.00;99.90
15426;DHT22;7812;50.072;7.036;2023-02-26T19:00:05;1.10;99.90
15426;DHT22;7812;50.072;7.036;2023-02-26T19:02:33;1.10;99.90
15426;DHT22;7812;50.072;7.036;2023-02-26T19:04:59;1.00;99.90
15426;DHT22;7812;50.072;7.036;2023-02-26T19:07:25;0.80;99.90
15426;DHT22;7812;50.072;7.036;2023-02-26T19:09:51;0.80;99.90
15426;DHT22;7812;50.072;7.036;2023-02-26T19:12:17;0.70;99.90
15426;DHT22;7812;50.072;7.036;2023-02-26T19:14:46;0.60;99.90
15426;DHT22;7812;50.072;7.036;2023-02-26T19:17:12;0.70;99.90
15426;DHT22;7812;50.072;7.036;2023-02-26T19:19:38;0.80;99.90
15426;DHT22;7812;50.072;7.036;2023-02-26T19:22:10;0.90;99.90
15426;DHT22;7812;50.072;7.036;2023-02-26T19:24:36;0.90;99.90
15426;DHT22;7812;50.072;7.036;2023-02-26T19:27:02;0.90;99.90
15426;DHT22;7812;50.072;7.036;2023-02-26T19:29:28;1.00;99.90
15426;DHT22;7812;50.072;7.036;2023-02-26T19:31:54;1.00;99.90
15426;DHT22;7812;50.072;7.036;2023-02-26T19:34:20;1.00;99.90
15426;DHT22;7812;50.072;7.036;2023-02-26T19:36:45;1.00;99.90
15426;DHT22;7812;50.072;7.036;2023-02-26T19:39:15;1.10;99.90
15426;DHT22;7812;50.072;7.036;2023-02-26T19:41:41;1.10;99.90
15426;DHT22;7812;50.072;7.036;2023-02-26T19:44:06;1.10;99.90
15426;DHT22;7812;50.072;7.036;2023-02-26T19:46:32;0.90;99.90
15426;DHT22;7812;50.072;7.036;2023-02-26T19:48:58;1.00;99.90
15426;DHT22;7812;50.072;7.036;2023-02-26T19:51:23;1.00;99.90
15426;DHT22;7812;50.072;7.036;2023-02-26T19:53:49;1.10;99.90
15426;DHT22;7812;50.072;7.036;2023-02-26T19:56:15;1.10;99.90
15426;DHT22;7812;50.072;7.036;2023-02-26T19:58:40;1.10;99.90
15426;DHT22;7812;50.072;7.036;2023-02-26T20:01:07;1.10;99.90
15426;DHT22;7812;50.072;7.036;2023-02-26T20:03:33;0.90;99.90
15426;DHT22;7812;50.072;7.036;2023-02-26T20:05:59;1.00;99.90
15426;DHT22;7812;50.072;7.036;2023-02-26T20:08:27;1.00;99.90
15426;DHT22;7812;50.072;7.036;2023-02-26T20:10:55;1.00;99.90
15426;DHT22;7812;50.072;7.036;2023-02-26T20:13:23;1.00;99.90
15426;DHT22;7812;50.072;7.036;2023-02-26T20:15:54;0.90;99.90
15426;DHT22;7812;50.072;7.036;2023-02-26T20:18:20;0.90;99.90